Time,TemperatureF,DewpointF,PressureIn,WindDirection,WindDirectionDegrees,WindSpeedMPH,WindSpeedGustMPH,Humidity,HourlyPrecipIn,Conditions,Clouds,dailyrainin,SoftwareType,DateUTC
2013-05-20 00:01:00,65.7,58.3,29.26,East,90,0.0,0.0,77,0.00,,BKN,0.00,VWS V13.01,2013-05-20 04:01:00,
2013-05-20 00:06:00,65.7,58.6,29.26,East,90,0.0,0.0,78,0.00,,BKN,0.00,VWS V13.01,2013-05-20 04:06:00,
2013-05-20 00:11:00,65.5,58.5,29.26,East,90,0.0,0.0,78,0.00,,BKN,0.00,VWS V13.01,2013-05-20 04:11:00,
2013-05-20 00:16:00,65.5,58.5,29.26,East,90,0.0,0.0,78,0.00,,BKN,0.00,VWS V13.01,2013-05-20 04:16:00,
2013-05-20 00:21:00,65.5,58.5,29.26,East,90,0.0,0.0,78,0.00,,BKN,0.00,VWS V13.01,2013-05-20 04:21:00,
2013-05-20 00:26:00,65.5,58.5,29.23,East,90,0.0,0.0,78,0.00,,BKN,0.00,VWS V13.01,2013-05-20 04:26:00,
2013-05-20 00:31:00,65.5,58.8,29.23,East,90,0.0,0.0,79,0.00,,BKN,0.00,VWS V13.01,2013-05-20 04:31:00,
2013-05-20 00:36:00,65.5,58.8,29.23,East,90,0.0,0.0,79,0.00,,BKN,0.00,VWS V13.01,2013-05-20 04:36:00,
2013-05-20 00:41:00,65.5,58.8,29.23,East,90,0.0,0.0,79,0.00,,BKN,0.00,VWS V13.01,2013-05-20 04:41:00,
2013-05-20 00:46:00,65.5,58.8,29.23,East,90,0.0,0.0,79,0.00,,BKN,0.00,VWS V13.01,2013-05-20 04:46:00,
2013-05-20 00:51:00,65.5,58.8,29.23,East,90,0.0,0.0,79,0.00,,BKN,0.00,VWS V13.01,2013-05-20 04:51:00,
2013-05-20 00:56:00,65.5,59.2,29.23,East,90,0.0,0.0,80,0.00,,BKN,0.00,VWS V13.01,2013-05-20 04:56:00,
2013-05-20 01:01:00,65.5,59.2,29.23,East,90,0.0,0.0,80,0.00,,BKN,0.00,VWS V13.01,2013-05-20 05:01:00,
2013-05-20 01:06:00,65.5,59.2,29.23,East,90,0.0,0.0,80,0.00,,BKN,0.00,VWS V13.01,2013-05-20 05:06:00,
2013-05-20 01:11:00,65.5,59.2,29.23,East,90,0.0,0.0,80,0.00,,BKN,0.00,VWS V13.01,2013-05-20 05:11:00,
2013-05-20 01:16:00,65.5,59.2,29.23,East,90,0.0,0.0,80,0.00,,BKN,0.00,VWS V13.01,2013-05-20 05:16:00,
2013-05-20 01:21:00,65.5,59.5,29.23,East,90,0.0,0.0,81,0.00,,BKN,0.00,VWS V13.01,2013-05-20 05:21:00,
2013-05-20 01:26:00,65.5,59.5,29.23,East,90,0.0,0.0,81,0.00,,BKN,0.00,VWS V13.01,2013-05-20 05:26:00,
2013-05-20 01:31:00,65.5,59.5,29.23,East,90,0.0,0.0,81,0.00,,BKN,0.00,VWS V13.01,2013-05-20 05:31:00,
2013-05-20 01:36:00,65.5,59.5,29.23,East,90,0.0,0.0,81,0.00,,BKN,0.00,VWS V13.01,2013-05-20 05:36:00,
2013-05-20 01:41:00,65.5,59.5,29.23,East,90,0.0,0.0,81,0.00,,BKN,0.00,VWS V13.01,2013-05-20 05:41:00,
2013-05-20 01:46:00,65.5,59.8,29.23,East,90,0.0,0.0,82,0.00,,BKN,0.00,VWS V13.01,2013-05-20 05:46:00,
2013-05-20 01:51:00,65.5,59.8,29.23,East,90,0.0,0.0,82,0.00,,BKN,0.00,VWS V13.01,2013-05-20 05:51:00,
2013-05-20 01:56:00,65.5,59.8,29.21,East,90,0.0,0.0,82,0.00,,BKN,0.00,VWS V13.01,2013-05-20 05:56:00,
2013-05-20 02:01:00,65.5,59.8,29.21,East,90,0.0,0.0,82,0.00,,BKN,0.00,VWS V13.01,2013-05-20 06:01:00,
2013-05-20 02:06:00,65.5,59.8,29.21,East,90,0.0,0.0,82,0.00,,BKN,0.00,VWS V13.01,2013-05-20 06:06:00,
2013-05-20 02:11:00,65.5,59.8,29.21,East,90,0.0,0.0,82,0.00,,BKN,0.00,VWS V13.01,2013-05-20 06:11:00,
2013-05-20 02:16:00,65.5,60.2,29.21,East,90,0.0,0.0,83,0.00,,BKN,0.00,VWS V13.01,2013-05-20 06:16:00,
2013-05-20 02:21:00,65.5,60.2,29.21,East,90,0.0,0.0,83,0.00,,BKN,0.00,VWS V13.01,2013-05-20 06:21:00,
2013-05-20 02:26:00,65.5,60.2,29.21,East,90,0.0,0.0,83,0.00,,BKN,0.00,VWS V13.01,2013-05-20 06:26:00,
2013-05-20 02:31:00,65.5,60.2,29.21,East,90,0.0,0.0,83,0.00,,BKN,0.00,VWS V13.01,2013-05-20 06:31:00,
2013-05-20 02:36:00,65.5,60.2,29.21,East,90,0.0,0.0,83,0.00,,BKN,0.00,VWS V13.01,2013-05-20 06:36:00,
2013-05-20 02:41:00,65.5,60.2,29.21,East,90,0.0,0.0,83,0.00,,BKN,0.00,VWS V13.01,2013-05-20 06:41:00,
2013-05-20 02:46:00,65.5,60.2,29.21,East,90,0.0,0.0,83,0.00,,BKN,0.00,VWS V13.01,2013-05-20 06:46:00,
2013-05-20 02:51:00,65.5,60.5,29.21,East,90,0.0,0.0,84,0.00,,BKN,0.00,VWS V13.01,2013-05-20 06:51:00,
2013-05-20 02:56:00,65.5,60.5,29.21,East,90,0.0,0.0,84,0.00,,BKN,0.00,VWS V13.01,2013-05-20 06:56:00,
2013-05-20 03:00:00,65.5,60.5,29.21,East,90,0.0,0.0,84,0.00,,BKN,0.00,VWS V13.01,2013-05-20 07:00:00,
2013-05-20 03:05:00,65.5,60.5,29.21,East,90,0.0,0.0,84,0.00,,BKN,0.00,VWS V13.01,2013-05-20 07:05:00,
2013-05-20 03:10:00,65.5,60.5,29.21,East,90,0.0,0.0,84,0.00,,BKN,0.00,VWS V13.01,2013-05-20 07:10:00,
2013-05-20 03:15:00,65.5,60.9,29.21,East,90,0.0,0.0,85,0.00,,BKN,0.00,VWS V13.01,2013-05-20 07:15:00,
2013-05-20 03:20:00,65.5,60.9,29.21,East,90,0.0,0.0,85,0.00,,BKN,0.00,VWS V13.01,2013-05-20 07:20:00,
2013-05-20 03:25:00,65.5,60.9,29.21,East,90,0.0,0.0,85,0.00,,BKN,0.00,VWS V13.01,2013-05-20 07:25:00,
2013-05-20 03:30:00,65.5,60.9,29.21,East,90,0.0,0.0,85,0.00,,BKN,0.00,VWS V13.01,2013-05-20 07:30:00,
2013-05-20 03:35:00,65.5,60.9,29.21,East,90,0.0,0.0,85,0.00,,BKN,0.00,VWS V13.01,2013-05-20 07:35:00,
2013-05-20 03:40:00,65.5,60.9,29.21,East,90,0.0,0.0,85,0.00,,BKN,0.00,VWS V13.01,2013-05-20 07:40:00,
2013-05-20 03:45:00,65.5,60.9,29.21,East,90,0.0,0.0,85,0.00,,BKN,0.00,VWS V13.01,2013-05-20 07:45:00,
2013-05-20 03:50:00,65.5,61.2,29.21,East,90,0.0,0.0,86,0.00,,BKN,0.00,VWS V13.01,2013-05-20 07:50:00,
2013-05-20 03:55:00,65.5,61.2,29.21,East,90,0.0,0.0,86,0.00,,BKN,0.00,VWS V13.01,2013-05-20 07:55:00,
2013-05-20 04:00:00,65.5,61.2,29.21,East,90,0.0,0.0,86,0.00,,BKN,0.00,VWS V13.01,2013-05-20 08:00:00,
2013-05-20 04:05:00,65.5,61.2,29.21,East,90,0.0,0.0,86,0.00,,BKN,0.00,VWS V13.01,2013-05-20 08:05:00,
2013-05-20 04:10:00,64.0,59.8,29.21,East,90,0.0,0.0,86,0.00,,BKN,0.00,VWS V13.01,2013-05-20 08:10:00,
2013-05-20 04:15:00,64.0,59.8,29.21,East,90,0.0,0.0,86,0.00,,BKN,0.00,VWS V13.01,2013-05-20 08:15:00,
2013-05-20 04:20:00,64.0,59.8,29.21,East,90,0.0,0.0,86,0.00,,BKN,0.00,VWS V13.01,2013-05-20 08:20:00,
2013-05-20 04:25:00,64.0,59.8,29.21,East,90,0.0,0.0,86,0.00,,BKN,0.00,VWS V13.01,2013-05-20 08:25:00,
2013-05-20 04:30:00,63.9,59.6,29.21,East,90,0.0,0.0,86,0.00,,BKN,0.00,VWS V13.01,2013-05-20 08:30:00,
2013-05-20 04:35:00,63.9,59.6,29.21,East,90,0.0,0.0,86,0.00,,BKN,0.00,VWS V13.01,2013-05-20 08:35:00,
2013-05-20 04:40:00,63.9,59.6,29.21,East,90,0.0,0.0,86,0.00,,BKN,0.00,VWS V13.01,2013-05-20 08:40:00,
2013-05-20 04:45:00,63.7,59.4,29.21,East,90,0.0,0.0,86,0.00,,BKN,0.00,VWS V13.01,2013-05-20 08:45:00,
2013-05-20 04:50:00,63.7,59.4,29.21,East,90,0.0,0.0,86,0.00,,BKN,0.00,VWS V13.01,2013-05-20 08:50:00,
2013-05-20 04:55:00,63.7,59.4,29.21,East,90,0.0,0.0,86,0.00,,BKN,0.00,VWS V13.01,2013-05-20 08:55:00,
2013-05-20 05:00:00,63.7,59.4,29.21,East,90,0.0,0.0,86,0.00,,BKN,0.00,VWS V13.01,2013-05-20 09:00:00,
2013-05-20 05:05:00,63.7,59.4,29.21,East,90,0.0,0.0,86,0.00,,BKN,0.00,VWS V13.01,2013-05-20 09:05:00,
2013-05-20 05:10:00,63.7,59.4,29.21,East,90,0.0,0.0,86,0.00,,BKN,0.00,VWS V13.01,2013-05-20 09:10:00,
2013-05-20 05:15:00,63.7,59.4,29.21,East,90,0.0,0.0,86,0.00,,BKN,0.00,VWS V13.01,2013-05-20 09:15:00,
2013-05-20 05:20:00,63.5,59.2,29.21,East,90,0.0,0.0,86,0.00,,BKN,0.00,VWS V13.01,2013-05-20 09:20:00,
2013-05-20 05:25:00,63.5,59.2,29.21,East,90,0.0,0.0,86,0.00,,BKN,0.00,VWS V13.01,2013-05-20 09:25:00,
2013-05-20 05:30:00,63.5,59.2,29.21,East,90,0.0,0.0,86,0.00,,BKN,0.00,VWS V13.01,2013-05-20 09:30:00,
2013-05-20 05:35:00,63.3,59.1,29.21,East,90,0.0,0.0,86,0.00,,BKN,0.00,VWS V13.01,2013-05-20 09:35:00,
2013-05-20 05:40:00,63.1,58.9,29.21,East,90,0.0,0.0,86,0.00,,BKN,0.00,VWS V13.01,2013-05-20 09:40:00,
2013-05-20 05:45:00,63.0,58.7,29.21,East,90,0.0,0.0,86,0.00,,BKN,0.00,VWS V13.01,2013-05-20 09:45:00,
2013-05-20 05:50:00,63.0,58.7,29.21,East,90,0.0,0.0,86,0.00,,BKN,0.00,VWS V13.01,2013-05-20 09:50:00,
2013-05-20 05:55:00,62.8,58.5,29.21,East,90,0.0,0.0,86,0.00,,BKN,0.00,VWS V13.01,2013-05-20 09:55:00,
2013-05-20 06:00:00,62.8,58.5,29.21,East,90,0.0,0.0,86,0.00,,BKN,0.00,VWS V13.01,2013-05-20 10:00:00,
2013-05-20 06:05:00,62.8,58.5,29.21,East,90,0.0,0.0,86,0.00,,BKN,0.00,VWS V13.01,2013-05-20 10:05:00,
2013-05-20 06:10:00,63.0,58.7,29.21,East,90,0.0,0.0,86,0.00,,BKN,0.00,VWS V13.01,2013-05-20 10:10:00,
2013-05-20 06:15:00,63.0,58.7,29.21,East,90,0.0,0.0,86,0.00,,BKN,0.00,VWS V13.01,2013-05-20 10:15:00,
2013-05-20 06:20:00,63.1,58.9,29.21,East,90,0.0,0.0,86,0.00,,BKN,0.00,VWS V13.01,2013-05-20 10:20:00,
2013-05-20 06:25:00,63.3,59.1,29.21,East,90,0.0,0.0,86,0.00,,BKN,0.00,VWS V13.01,2013-05-20 10:25:00,
2013-05-20 06:30:00,63.3,59.1,29.21,East,90,0.0,0.0,86,0.00,,BKN,0.00,VWS V13.01,2013-05-20 10:30:00,
2013-05-20 06:35:00,63.5,59.2,29.21,East,90,0.0,0.0,86,0.00,,BKN,0.00,VWS V13.01,2013-05-20 10:35:00,
2013-05-20 06:40:00,63.5,59.2,29.23,East,90,0.0,0.0,86,0.00,,BKN,0.00,VWS V13.01,2013-05-20 10:40:00,
2013-05-20 06:45:00,63.7,59.4,29.23,East,90,0.0,0.0,86,0.00,,BKN,0.00,VWS V13.01,2013-05-20 10:45:00,
2013-05-20 06:50:00,63.7,59.4,29.23,East,90,0.0,0.0,86,0.00,,BKN,0.00,VWS V13.01,2013-05-20 10:50:00,
2013-05-20 06:55:00,63.7,59.4,29.23,East,90,0.0,0.0,86,0.00,,BKN,0.00,VWS V13.01,2013-05-20 10:55:00,
2013-05-20 07:00:00,63.9,59.6,29.23,East,90,0.0,0.0,86,0.00,,BKN,0.00,VWS V13.01,2013-05-20 11:00:00,
2013-05-20 07:05:00,63.9,59.6,29.23,East,90,0.0,0.0,86,0.00,,BKN,0.00,VWS V13.01,2013-05-20 11:05:00,
2013-05-20 07:10:00,63.9,59.6,29.23,East,90,0.0,0.0,86,0.00,,BKN,0.00,VWS V13.01,2013-05-20 11:10:00,
2013-05-20 07:15:00,64.0,59.8,29.23,East,90,0.0,0.0,86,0.00,,BKN,0.00,VWS V13.01,2013-05-20 11:15:00,
2013-05-20 07:20:00,64.0,59.8,29.23,East,90,0.0,0.0,86,0.00,,BKN,0.00,VWS V13.01,2013-05-20 11:20:00,
2013-05-20 07:25:00,64.2,60.0,29.23,East,90,0.0,0.0,86,0.00,,BKN,0.00,VWS V13.01,2013-05-20 11:25:00,
2013-05-20 07:30:00,64.2,60.0,29.23,East,90,0.0,0.0,86,0.00,,BKN,0.00,VWS V13.01,2013-05-20 11:30:00,
2013-05-20 07:35:00,64.4,60.1,29.23,East,90,0.0,0.0,86,0.00,,BKN,0.00,VWS V13.01,2013-05-20 11:35:00,
2013-05-20 07:40:00,64.6,60.3,29.23,East,90,0.0,0.0,86,0.00,,BKN,0.00,VWS V13.01,2013-05-20 11:40:00,
2013-05-20 07:45:00,64.9,60.7,29.23,East,90,0.0,0.0,86,0.00,,BKN,0.00,VWS V13.01,2013-05-20 11:45:00,
2013-05-20 07:50:00,65.1,60.8,29.23,East,90,0.0,0.0,86,0.00,,BKN,0.00,VWS V13.01,2013-05-20 11:50:00,
2013-05-20 07:55:00,65.1,60.8,29.23,East,90,0.0,0.0,86,0.00,,BKN,0.00,VWS V13.01,2013-05-20 11:55:00,
2013-05-20 08:00:00,65.1,62.4,29.23,SSE,153,0.0,0.0,91,0.00,,BKN,0.00,VWS V13.01,2013-05-20 12:00:00,
2013-05-20 08:05:00,65.1,62.4,29.23,ENE,72,0.0,3.1,91,0.00,,BKN,0.00,VWS V13.01,2013-05-20 12:05:00,
2013-05-20 08:10:00,64.9,62.2,29.23,East,94,4.0,4.0,91,0.00,,BKN,0.00,VWS V13.01,2013-05-20 12:10:00,
2013-05-20 08:15:00,65.1,62.4,29.23,East,94,2.7,2.7,91,0.00,,BKN,0.00,VWS V13.01,2013-05-20 12:15:00,
2013-05-20 08:20:00,65.3,62.6,29.23,East,94,0.0,0.0,91,0.00,,BKN,0.00,VWS V13.01,2013-05-20 12:20:00,
2013-05-20 08:25:00,65.5,62.8,29.23,East,94,0.0,3.1,91,0.00,,BKN,0.00,VWS V13.01,2013-05-20 12:25:00,
2013-05-20 08:30:00,65.5,62.8,29.23,East,98,2.7,3.6,91,0.00,,BKN,0.00,VWS V13.01,2013-05-20 12:30:00,
2013-05-20 08:35:00,65.5,62.8,29.23,East,98,2.7,3.1,91,0.00,,BKN,0.00,VWS V13.01,2013-05-20 12:35:00,
2013-05-20 08:40:00,65.8,63.5,29.23,East,98,3.1,3.1,92,0.00,,BKN,0.00,VWS V13.01,2013-05-20 12:40:00,
2013-05-20 08:45:00,65.8,63.5,29.23,East,89,0.0,0.0,92,0.00,,BKN,0.00,VWS V13.01,2013-05-20 12:45:00,
2013-05-20 08:50:00,66.0,63.6,29.23,East,89,3.1,3.1,92,0.00,,BKN,0.00,VWS V13.01,2013-05-20 12:50:00,
2013-05-20 08:55:00,66.2,64.1,29.23,East,89,3.6,4.5,93,0.00,,BKN,0.00,VWS V13.01,2013-05-20 12:55:00,
2013-05-20 09:00:00,66.7,64.7,29.23,East,89,2.7,3.6,93,0.00,,BKN,0.00,VWS V13.01,2013-05-20 13:00:00,
2013-05-20 09:05:00,67.1,65.0,29.23,East,89,0.0,0.0,93,0.00,,BKN,0.00,VWS V13.01,2013-05-20 13:05:00,
2013-05-20 09:10:00,67.8,65.7,29.23,East,89,0.0,0.0,93,0.00,,BKN,0.00,VWS V13.01,2013-05-20 13:10:00,
2013-05-20 09:15:00,68.0,66.2,29.23,East,89,0.0,0.0,94,0.00,,BKN,0.00,VWS V13.01,2013-05-20 13:15:00,
2013-05-20 09:20:00,68.4,66.6,29.23,East,89,0.0,0.0,94,0.00,,BKN,0.00,VWS V13.01,2013-05-20 13:20:00,
2013-05-20 09:25:00,68.7,66.9,29.23,East,89,0.0,0.0,94,0.00,,BKN,0.00,VWS V13.01,2013-05-20 13:25:00,
2013-05-20 09:30:00,69.1,67.3,29.23,NW,319,0.0,0.0,94,0.00,,BKN,0.00,VWS V13.01,2013-05-20 13:30:00,
2013-05-20 09:35:00,69.3,67.5,29.23,NW,319,0.0,0.0,94,0.00,,BKN,0.00,VWS V13.01,2013-05-20 13:35:00,
2013-05-20 09:40:00,69.3,67.2,29.23,NW,319,0.0,0.0,93,0.00,,BKN,0.00,VWS V13.01,2013-05-20 13:40:00,
2013-05-20 09:45:00,69.3,67.2,29.23,NW,319,0.0,0.0,93,0.00,,BKN,0.00,VWS V13.01,2013-05-20 13:45:00,
2013-05-20 09:50:00,69.3,67.2,29.23,NW,319,0.0,0.0,93,0.00,,BKN,0.00,VWS V13.01,2013-05-20 13:50:00,
2013-05-20 09:55:00,69.4,67.3,29.23,NW,319,0.0,0.0,93,0.00,,BKN,0.00,VWS V13.01,2013-05-20 13:55:00,
2013-05-20 10:00:00,69.8,67.7,29.23,NW,319,0.0,0.0,93,0.00,,BKN,0.00,VWS V13.01,2013-05-20 14:00:00,
2013-05-20 10:05:00,70.2,68.1,29.23,NW,319,0.0,0.0,93,0.00,,BKN,0.00,VWS V13.01,2013-05-20 14:05:00,
2013-05-20 10:10:00,70.3,67.9,29.23,ESE,103,3.6,3.6,92,0.00,,BKN,0.00,VWS V13.01,2013-05-20 14:10:00,
2013-05-20 10:15:00,70.7,66.0,29.23,SE,125,2.7,4.9,85,0.00,,BKN,0.00,VWS V13.01,2013-05-20 14:15:00,
2013-05-20 10:20:00,71.4,64.9,29.23,SE,140,0.0,0.0,80,0.00,,BKN,0.00,VWS V13.01,2013-05-20 14:20:00,
2013-05-20 10:25:00,71.8,64.9,29.23,NW,324,0.0,0.0,79,0.00,,BKN,0.00,VWS V13.01,2013-05-20 14:25:00,
2013-05-20 10:30:00,72.3,64.0,29.23,ESE,105,0.0,3.6,75,0.00,,BKN,0.00,VWS V13.01,2013-05-20 14:30:00,
2013-05-20 10:35:00,72.3,62.0,29.23,SE,140,5.4,5.4,70,0.00,,BKN,0.00,VWS V13.01,2013-05-20 14:35:00,
2013-05-20 10:39:00,72.7,61.5,29.23,SSE,157,3.1,5.8,68,0.00,,BKN,0.00,VWS V13.01,2013-05-20 14:39:00,
2013-05-20 10:44:00,73.0,61.0,29.23,ESE,114,2.7,3.1,66,0.00,,BKN,0.00,VWS V13.01,2013-05-20 14:44:00,
2013-05-20 10:49:00,73.4,61.8,29.23,ESE,114,0.0,0.0,67,0.00,,BKN,0.00,VWS V13.01,2013-05-20 14:49:00,
2013-05-20 10:54:00,74.5,62.8,29.23,ENE,59,0.0,4.0,67,0.00,,BKN,0.00,VWS V13.01,2013-05-20 14:54:00,
2013-05-20 10:59:00,75.0,61.1,29.23,SSE,155,3.6,4.9,62,0.00,,BKN,0.00,VWS V13.01,2013-05-20 14:59:00,
2013-05-20 11:04:00,74.8,59.6,29.23,SSE,155,3.1,3.1,59,0.00,,BKN,0.00,VWS V13.01,2013-05-20 15:04:00,
2013-05-20 11:09:00,74.5,59.2,29.23,SSE,148,0.0,4.0,59,0.00,,BKN,0.00,VWS V13.01,2013-05-20 15:09:00,
2013-05-20 11:14:00,74.1,59.4,29.23,SE,143,0.0,2.7,60,0.00,,BKN,0.00,VWS V13.01,2013-05-20 15:14:00,
2013-05-20 11:19:00,73.9,59.7,29.23,ENE,75,0.0,0.0,61,0.00,,BKN,0.00,VWS V13.01,2013-05-20 15:19:00,
2013-05-20 11:24:00,73.9,60.1,29.21,NE,48,3.1,3.1,62,0.00,,BKN,0.00,VWS V13.01,2013-05-20 15:24:00,
2013-05-20 11:29:00,74.1,60.3,29.21,SE,134,3.1,3.6,62,0.00,,BKN,0.00,VWS V13.01,2013-05-20 15:29:00,
2013-05-20 11:34:00,74.3,60.9,29.21,SE,135,0.0,2.7,63,0.00,,BKN,0.00,VWS V13.01,2013-05-20 15:34:00,
2013-05-20 11:39:00,75.0,61.6,29.21,East,86,3.6,4.9,63,0.00,,BKN,0.00,VWS V13.01,2013-05-20 15:39:00,
2013-05-20 11:44:00,75.2,60.8,29.21,ESE,108,2.7,4.0,61,0.00,,BKN,0.00,VWS V13.01,2013-05-20 15:44:00,
2013-05-20 11:49:00,75.6,60.7,29.21,East,95,3.1,3.6,60,0.00,,BKN,0.00,VWS V13.01,2013-05-20 15:49:00,
2013-05-20 11:54:00,75.9,61.0,29.21,NE,49,2.7,4.9,60,0.00,,BKN,0.00,VWS V13.01,2013-05-20 15:54:00,
2013-05-20 11:59:00,76.1,60.8,29.21,ENE,57,2.7,3.1,59,0.00,,BKN,0.00,VWS V13.01,2013-05-20 15:59:00,
2013-05-20 12:04:00,75.6,59.8,29.21,ENE,58,0.0,0.0,58,0.00,,BKN,0.00,VWS V13.01,2013-05-20 16:04:00,
2013-05-20 12:09:00,75.6,60.2,29.21,ENE,58,0.0,0.0,59,0.00,,BKN,0.00,VWS V13.01,2013-05-20 16:09:00,
2013-05-20 12:14:00,75.9,60.6,29.21,ENE,58,0.0,3.6,59,0.00,,BKN,0.00,VWS V13.01,2013-05-20 16:14:00,
2013-05-20 12:19:00,75.9,60.6,29.21,NE,52,3.6,4.9,59,0.00,,BKN,0.00,VWS V13.01,2013-05-20 16:19:00,
2013-05-20 12:24:00,75.9,60.1,29.21,NE,51,4.9,4.9,58,0.00,,BKN,0.00,VWS V13.01,2013-05-20 16:24:00,
2013-05-20 12:29:00,75.6,60.2,29.21,ESE,110,5.8,6.3,59,0.00,,BKN,0.00,VWS V13.01,2013-05-20 16:29:00,
2013-05-20 12:34:00,76.1,61.7,29.21,ESE,111,4.0,4.9,61,0.00,,BKN,0.00,VWS V13.01,2013-05-20 16:34:00,
2013-05-20 12:39:00,76.6,61.2,29.21,ENE,60,4.9,6.9,59,0.00,,BKN,0.00,VWS V13.01,2013-05-20 16:39:00,
2013-05-20 12:44:00,77.0,61.6,29.21,SE,144,4.9,5.8,59,0.00,,BKN,0.00,VWS V13.01,2013-05-20 16:44:00,
2013-05-20 12:49:00,77.4,61.4,29.21,ESE,110,4.0,4.9,58,0.00,,BKN,0.00,VWS V13.01,2013-05-20 16:49:00,
2013-05-20 12:54:00,77.2,60.3,29.21,ESE,104,6.7,7.4,56,0.00,,BKN,0.00,VWS V13.01,2013-05-20 16:54:00,
2013-05-20 12:59:00,76.8,58.9,29.21,East,98,2.7,5.8,54,0.00,,BKN,0.00,VWS V13.01,2013-05-20 16:59:00,
2013-05-20 13:04:00,77.2,60.3,29.21,NE,47,3.6,8.3,56,0.00,,BKN,0.00,VWS V13.01,2013-05-20 17:04:00,
2013-05-20 13:09:00,77.2,59.8,29.18,ENE,72,4.9,4.9,55,0.00,,BKN,0.00,VWS V13.01,2013-05-20 17:09:00,
2013-05-20 13:14:00,77.5,61.1,29.18,NE,48,5.8,5.8,57,0.00,,BKN,0.00,VWS V13.01,2013-05-20 17:14:00,
2013-05-20 13:19:00,77.4,58.4,29.18,ESE,105,2.7,4.0,52,0.00,,BKN,0.00,VWS V13.01,2013-05-20 17:19:00,
2013-05-20 13:24:00,77.5,59.6,29.18,NNE,27,4.9,6.7,54,0.00,,BKN,0.00,VWS V13.01,2013-05-20 17:24:00,
2013-05-20 13:29:00,78.1,60.6,29.18,ENE,64,3.1,5.4,55,0.00,,BKN,0.00,VWS V13.01,2013-05-20 17:29:00,
2013-05-20 13:34:00,78.3,59.7,29.18,North,7,3.1,4.5,53,0.00,,BKN,0.00,VWS V13.01,2013-05-20 17:34:00,
2013-05-20 13:39:00,78.8,60.2,29.18,ENE,77,4.5,4.5,53,0.00,,BKN,0.00,VWS V13.01,2013-05-20 17:39:00,
2013-05-20 13:44:00,78.8,59.2,29.18,ESE,114,4.9,6.9,51,0.00,,BKN,0.00,VWS V13.01,2013-05-20 17:44:00,
2013-05-20 13:49:00,78.8,58.6,29.18,North,4,3.6,4.0,50,0.00,,BKN,0.00,VWS V13.01,2013-05-20 17:49:00,
2013-05-20 13:54:00,78.8,58.0,29.18,East,91,5.4,6.9,49,0.00,,BKN,0.00,VWS V13.01,2013-05-20 17:54:00,
2013-05-20 13:59:00,78.8,57.5,29.18,NE,53,6.9,6.9,48,0.00,,BKN,0.00,VWS V13.01,2013-05-20 17:59:00,
2013-05-20 14:04:00,78.6,57.9,29.18,SE,144,2.7,5.8,49,0.00,,BKN,0.00,VWS V13.01,2013-05-20 18:04:00,
2013-05-20 14:09:00,78.8,56.9,29.18,East,89,4.5,5.8,47,0.00,,BKN,0.00,VWS V13.01,2013-05-20 18:09:00,
2013-05-20 14:14:00,79.0,58.2,29.18,SSE,162,5.4,5.8,49,0.00,,BKN,0.00,VWS V13.01,2013-05-20 18:14:00,
2013-05-20 14:19:00,79.2,57.2,29.18,East,86,4.9,9.6,47,0.00,,BKN,0.00,VWS V13.01,2013-05-20 18:19:00,
2013-05-20 14:24:00,79.3,56.8,29.18,ENE,68,5.4,5.8,46,0.00,,BKN,0.00,VWS V13.01,2013-05-20 18:24:00,
2013-05-20 14:29:00,79.0,57.0,29.18,SSW,197,4.5,4.5,47,0.00,,BKN,0.00,VWS V13.01,2013-05-20 18:29:00,
2013-05-20 14:34:00,79.0,56.5,29.18,SE,146,5.8,7.4,46,0.00,,BKN,0.00,VWS V13.01,2013-05-20 18:34:00,
2013-05-20 14:39:00,78.4,56.6,29.18,East,97,3.6,4.9,47,0.00,,BKN,0.00,VWS V13.01,2013-05-20 18:39:00,
2013-05-20 14:44:00,77.7,56.5,29.18,ESE,109,3.6,4.0,48,0.00,,BKN,0.00,VWS V13.01,2013-05-20 18:44:00,
2013-05-20 14:49:00,77.2,57.7,29.18,East,93,4.0,4.9,51,0.00,,BKN,0.00,VWS V13.01,2013-05-20 18:49:00,
2013-05-20 14:54:00,77.0,58.6,29.18,ESE,104,4.9,4.9,53,0.00,,BKN,0.00,VWS V13.01,2013-05-20 18:54:00,
2013-05-20 14:59:00,77.0,58.6,29.18,ESE,114,4.0,4.0,53,0.00,,BKN,0.00,VWS V13.01,2013-05-20 18:59:00,
2013-05-20 15:04:00,77.0,58.6,29.18,SE,131,4.9,4.9,53,0.00,,BKN,0.00,VWS V13.01,2013-05-20 19:04:00,
2013-05-20 15:09:00,77.2,57.7,29.18,NE,38,4.9,4.9,51,0.00,,BKN,0.00,VWS V13.01,2013-05-20 19:09:00,
2013-05-20 15:14:00,77.4,56.7,29.18,ESE,120,2.7,2.7,49,0.00,,BKN,0.00,VWS V13.01,2013-05-20 19:14:00,
2013-05-20 15:19:00,77.7,57.6,29.18,East,98,6.7,6.7,50,0.00,,BKN,0.00,VWS V13.01,2013-05-20 19:19:00,
2013-05-20 15:24:00,78.1,57.4,29.15,ESE,121,4.0,4.0,49,0.00,,BKN,0.00,VWS V13.01,2013-05-20 19:24:00,
2013-05-20 15:29:00,78.4,57.7,29.15,East,84,5.8,5.8,49,0.00,,BKN,0.00,VWS V13.01,2013-05-20 19:29:00,
2013-05-20 15:34:00,79.0,59.3,29.15,SE,146,3.1,4.5,51,0.00,,BKN,0.00,VWS V13.01,2013-05-20 19:34:00,
2013-05-20 15:39:00,79.3,57.4,29.15,East,101,6.9,7.4,47,0.00,,BKN,0.00,VWS V13.01,2013-05-20 19:39:00,
2013-05-20 15:44:00,79.0,57.6,29.15,SE,129,3.1,3.6,48,0.00,,BKN,0.00,VWS V13.01,2013-05-20 19:44:00,
2013-05-20 15:49:00,78.8,58.0,29.15,ESE,114,6.7,6.9,49,0.00,,BKN,0.00,VWS V13.01,2013-05-20 19:49:00,
2013-05-20 15:54:00,78.4,57.7,29.15,ESE,102,3.6,3.6,49,0.00,,BKN,0.00,VWS V13.01,2013-05-20 19:54:00,
2013-05-20 15:59:00,78.1,57.4,29.15,ESE,109,4.9,4.9,49,0.00,,BKN,0.00,VWS V13.01,2013-05-20 19:59:00,
2013-05-20 16:04:00,77.7,58.2,29.15,NNE,27,0.0,0.0,51,0.00,,BKN,0.00,VWS V13.01,2013-05-20 20:04:00,
2013-05-20 16:09:00,77.7,58.2,29.15,ESE,103,4.0,4.5,51,0.00,,BKN,0.00,VWS V13.01,2013-05-20 20:09:00,
2013-05-20 16:14:00,77.4,57.8,29.15,ESE,109,4.5,4.5,51,0.00,,BKN,0.00,VWS V13.01,2013-05-20 20:14:00,
2013-05-20 16:19:00,77.0,58.6,29.15,ESE,107,3.6,4.9,53,0.00,,BKN,0.00,VWS V13.01,2013-05-20 20:19:00,
2013-05-20 16:24:00,77.2,59.8,29.15,ESE,116,5.4,5.4,55,0.00,,BKN,0.00,VWS V13.01,2013-05-20 20:24:00,
2013-05-20 16:29:00,77.5,59.6,29.15,SE,137,4.0,6.9,54,0.00,,BKN,0.00,VWS V13.01,2013-05-20 20:29:00,
2013-05-20 16:34:00,77.7,59.8,29.15,East,79,2.7,2.7,54,0.00,,BKN,0.00,VWS V13.01,2013-05-20 20:34:00,
2013-05-20 16:39:00,78.1,58.5,29.15,East,100,2.7,4.0,51,0.00,,BKN,0.00,VWS V13.01,2013-05-20 20:39:00,
2013-05-20 16:44:00,78.3,58.1,29.15,ENE,68,4.0,4.5,50,0.00,,BKN,0.00,VWS V13.01,2013-05-20 20:44:00,
2013-05-20 16:49:00,78.4,59.4,29.15,NNE,18,3.1,5.8,52,0.00,,BKN,0.00,VWS V13.01,2013-05-20 20:49:00,
2013-05-20 16:54:00,78.8,58.6,29.15,ENE,63,6.9,6.9,50,0.00,,BKN,0.00,VWS V13.01,2013-05-20 20:54:00,
2013-05-20 16:59:00,78.6,59.0,29.15,NE,45,6.3,6.3,51,0.00,,BKN,0.00,VWS V13.01,2013-05-20 20:59:00,
2013-05-20 17:04:00,78.8,59.2,29.15,NE,43,4.5,4.5,51,0.00,,BKN,0.00,VWS V13.01,2013-05-20 21:04:00,
2013-05-20 17:09:00,79.2,59.5,29.15,ESE,118,5.4,5.4,51,0.00,,BKN,0.00,VWS V13.01,2013-05-20 21:09:00,
2013-05-20 17:14:00,79.3,58.5,29.15,South,190,4.0,6.9,49,0.00,,BKN,0.00,VWS V13.01,2013-05-20 21:14:00,
2013-05-20 17:19:00,79.5,59.3,29.15,ENE,68,4.5,4.5,50,0.00,,BKN,0.00,VWS V13.01,2013-05-20 21:19:00,
2013-05-20 17:24:00,79.9,59.0,29.15,SSW,205,4.5,5.4,49,0.00,,BKN,0.00,VWS V13.01,2013-05-20 21:24:00,
2013-05-20 17:29:00,80.1,58.6,29.15,NE,43,4.5,4.9,48,0.00,,BKN,0.00,VWS V13.01,2013-05-20 21:29:00,
2013-05-20 17:34:00,79.5,58.1,29.15,NE,56,6.3,6.7,48,0.00,,BKN,0.00,VWS V13.01,2013-05-20 21:34:00,
2013-05-20 17:39:00,79.3,58.5,29.15,ESE,120,4.9,4.9,49,0.00,,BKN,0.00,VWS V13.01,2013-05-20 21:39:00,
2013-05-20 17:44:00,79.3,58.0,29.15,NE,54,4.9,5.4,48,0.00,,BKN,0.00,VWS V13.01,2013-05-20 21:44:00,
2013-05-20 17:49:00,79.2,57.8,29.15,SE,126,6.9,6.9,48,0.00,,BKN,0.00,VWS V13.01,2013-05-20 21:49:00,
2013-05-20 17:54:00,79.0,58.2,29.15,NE,47,4.9,6.7,49,0.00,,BKN,0.00,VWS V13.01,2013-05-20 21:54:00,
2013-05-20 17:59:00,79.2,58.4,29.15,East,101,4.0,4.0,49,0.00,,BKN,0.00,VWS V13.01,2013-05-20 21:59:00,
2013-05-20 18:04:00,79.5,58.1,29.15,NE,47,7.8,7.8,48,0.00,,BKN,0.00,VWS V13.01,2013-05-20 22:04:00,
2013-05-20 18:09:00,79.2,57.8,29.15,East,100,5.4,6.7,48,0.00,,BKN,0.00,VWS V13.01,2013-05-20 22:09:00,
2013-05-20 18:14:00,78.6,57.9,29.15,ESE,117,2.7,2.7,49,0.00,,BKN,0.00,VWS V13.01,2013-05-20 22:14:00,
2013-05-20 18:19:00,78.4,58.3,29.15,SSE,151,5.4,6.3,50,0.00,,BKN,0.00,VWS V13.01,2013-05-20 22:19:00,
2013-05-20 18:24:00,78.1,58.0,29.15,ESE,121,4.0,4.0,50,0.00,,BKN,0.00,VWS V13.01,2013-05-20 22:24:00,
2013-05-20 18:29:00,77.9,58.3,29.15,East,101,2.7,2.7,51,0.00,,BKN,0.00,VWS V13.01,2013-05-20 22:29:00,
2013-05-20 18:34:00,77.5,58.5,29.15,ESE,110,2.7,2.7,52,0.00,,BKN,0.00,VWS V13.01,2013-05-20 22:34:00,
2013-05-20 18:39:00,77.2,58.7,29.15,SE,143,3.6,3.6,53,0.00,,BKN,0.00,VWS V13.01,2013-05-20 22:39:00,
2013-05-20 18:44:00,77.0,59.1,29.15,ESE,105,4.5,4.5,54,0.00,,BKN,0.00,VWS V13.01,2013-05-20 22:44:00,
2013-05-20 18:49:00,76.6,59.3,29.15,ESE,111,3.1,3.1,55,0.00,,BKN,0.00,VWS V13.01,2013-05-20 22:49:00,
2013-05-20 18:54:00,76.5,59.6,29.15,East,90,5.4,5.4,56,0.00,,BKN,0.00,VWS V13.01,2013-05-20 22:54:00,
2013-05-20 18:59:00,76.3,60.0,29.15,ESE,114,3.1,5.8,57,0.00,,BKN,0.00,VWS V13.01,2013-05-20 22:59:00,
2013-05-20 19:03:00,76.1,60.3,29.15,East,100,3.6,4.9,58,0.00,,BKN,0.00,VWS V13.01,2013-05-20 23:03:00,
2013-05-20 19:08:00,75.7,60.4,29.15,ESE,118,0.0,3.6,59,0.00,,BKN,0.00,VWS V13.01,2013-05-20 23:08:00,
2013-05-20 19:13:00,75.6,60.7,29.15,ESE,106,2.7,4.9,60,0.00,,BKN,0.00,VWS V13.01,2013-05-20 23:13:00,
2013-05-20 19:18:00,75.4,60.5,29.15,ESE,115,3.6,4.5,60,0.00,,BKN,0.00,VWS V13.01,2013-05-20 23:18:00,
2013-05-20 19:23:00,75.0,60.7,29.15,ESE,115,4.0,4.5,61,0.00,,BKN,0.00,VWS V13.01,2013-05-20 23:23:00,
2013-05-20 19:28:00,74.8,61.0,29.15,East,99,3.6,4.0,62,0.00,,BKN,0.00,VWS V13.01,2013-05-20 23:28:00,
2013-05-20 19:33:00,74.7,61.2,29.15,ESE,112,2.7,3.1,63,0.00,,BKN,0.00,VWS V13.01,2013-05-20 23:33:00,
2013-05-20 19:38:00,74.5,61.1,29.12,ESE,114,0.0,0.0,63,0.00,,BKN,0.00,VWS V13.01,2013-05-20 23:38:00,
2013-05-20 19:43:00,74.5,61.1,29.12,ESE,121,0.0,0.0,63,0.00,,BKN,0.00,VWS V13.01,2013-05-20 23:43:00,
2013-05-20 19:48:00,74.3,61.3,29.12,ESE,121,0.0,0.0,64,0.00,,BKN,0.00,VWS V13.01,2013-05-20 23:48:00,
2013-05-20 19:53:00,74.1,61.2,29.15,ESE,121,0.0,0.0,64,0.00,,BKN,0.00,VWS V13.01,2013-05-20 23:53:00,
2013-05-20 19:58:00,74.1,61.2,29.15,ESE,121,0.0,0.0,64,0.00,,BKN,0.00,VWS V13.01,2013-05-20 23:58:00,
2013-05-20 20:03:00,73.9,61.0,29.15,ESE,121,0.0,0.0,64,0.00,,BKN,0.00,VWS V13.01,2013-05-21 00:03:00,
2013-05-20 20:08:00,73.6,61.1,29.15,ESE,106,0.0,4.0,65,0.00,,BKN,0.00,VWS V13.01,2013-05-21 00:08:00,
2013-05-20 20:13:00,73.6,61.5,29.15,ESE,112,0.0,2.7,66,0.00,,BKN,0.00,VWS V13.01,2013-05-21 00:13:00,
2013-05-20 20:18:00,73.4,61.4,29.15,ESE,112,0.0,0.0,66,0.00,,BKN,0.00,VWS V13.01,2013-05-21 00:18:00,
2013-05-20 20:23:00,73.2,61.2,29.15,ESE,112,0.0,0.0,66,0.00,,BKN,0.00,VWS V13.01,2013-05-21 00:23:00,
2013-05-20 20:28:00,73.0,61.0,29.15,ESE,112,0.0,0.0,66,0.00,,BKN,0.00,VWS V13.01,2013-05-21 00:28:00,
2013-05-20 20:33:00,72.7,60.7,29.15,ESE,112,0.0,0.0,66,0.00,,BKN,0.00,VWS V13.01,2013-05-21 00:33:00,
2013-05-20 20:38:00,72.5,60.9,29.15,ESE,112,0.0,0.0,67,0.00,,BKN,0.00,VWS V13.01,2013-05-21 00:38:00,
2013-05-20 20:43:00,72.3,61.2,29.15,SE,134,0.0,3.1,68,0.00,,BKN,0.00,VWS V13.01,2013-05-21 00:43:00,
2013-05-20 20:48:00,72.1,61.0,29.15,SE,137,2.7,2.7,68,0.00,,BKN,0.00,VWS V13.01,2013-05-21 00:48:00,
2013-05-20 20:53:00,72.0,61.2,29.15,SE,137,0.0,0.0,69,0.00,,BKN,0.00,VWS V13.01,2013-05-21 00:53:00,
2013-05-20 20:58:00,71.8,61.1,29.15,SE,137,0.0,0.0,69,0.00,,BKN,0.00,VWS V13.01,2013-05-21 00:58:00,
2013-05-20 21:03:00,71.8,61.1,29.15,SE,137,0.0,0.0,69,0.00,,BKN,0.00,VWS V13.01,2013-05-21 01:03:00,
2013-05-20 21:08:00,71.6,60.9,29.15,SE,137,0.0,0.0,69,0.00,,BKN,0.00,VWS V13.01,2013-05-21 01:08:00,
2013-05-20 21:13:00,71.6,60.9,29.15,SE,137,0.0,0.0,69,0.00,,BKN,0.00,VWS V13.01,2013-05-21 01:13:00,
2013-05-20 21:18:00,71.6,60.9,29.15,SE,137,0.0,0.0,69,0.00,,BKN,0.00,VWS V13.01,2013-05-21 01:18:00,
2013-05-20 21:23:00,71.4,61.1,29.15,SE,137,0.0,0.0,70,0.00,,BKN,0.00,VWS V13.01,2013-05-21 01:23:00,
2013-05-20 21:28:00,71.2,61.0,29.15,SE,137,0.0,0.0,70,0.00,,BKN,0.00,VWS V13.01,2013-05-21 01:28:00,
2013-05-20 21:33:00,71.2,61.0,29.15,SE,137,0.0,0.0,70,0.00,,BKN,0.00,VWS V13.01,2013-05-21 01:33:00,
2013-05-20 21:38:00,71.1,60.8,29.15,SE,137,0.0,0.0,70,0.00,,BKN,0.00,VWS V13.01,2013-05-21 01:38:00,
2013-05-20 21:43:00,70.9,60.6,29.15,SE,137,0.0,0.0,70,0.00,,BKN,0.00,VWS V13.01,2013-05-21 01:43:00,
2013-05-20 21:48:00,70.7,60.5,29.15,SE,137,0.0,0.0,70,0.00,,BKN,0.00,VWS V13.01,2013-05-21 01:48:00,
2013-05-20 21:53:00,70.7,60.8,29.15,SE,137,0.0,0.0,71,0.00,,BKN,0.00,VWS V13.01,2013-05-21 01:53:00,
2013-05-20 21:58:00,70.5,60.7,29.15,SE,137,0.0,0.0,71,0.00,,BKN,0.00,VWS V13.01,2013-05-21 01:58:00,
2013-05-20 22:03:00,70.5,61.1,29.15,SE,137,0.0,0.0,72,0.00,,BKN,0.00,VWS V13.01,2013-05-21 02:03:00,
2013-05-20 22:08:00,70.3,60.9,29.15,SE,137,0.0,0.0,72,0.00,,BKN,0.00,VWS V13.01,2013-05-21 02:08:00,
2013-05-20 22:13:00,70.3,60.9,29.15,SE,137,0.0,0.0,72,0.00,,BKN,0.00,VWS V13.01,2013-05-21 02:13:00,
2013-05-20 22:18:00,70.2,60.7,29.15,SE,137,0.0,0.0,72,0.00,,BKN,0.00,VWS V13.01,2013-05-21 02:18:00,
2013-05-20 22:23:00,70.0,60.5,29.15,SE,137,0.0,0.0,72,0.00,,BKN,0.00,VWS V13.01,2013-05-21 02:23:00,
2013-05-20 22:28:00,69.8,61.2,29.15,SE,137,0.0,0.0,74,0.00,,BKN,0.00,VWS V13.01,2013-05-21 02:28:00,
2013-05-20 22:33:00,70.0,61.7,29.15,SE,137,0.0,0.0,75,0.00,,BKN,0.00,VWS V13.01,2013-05-21 02:33:00,
2013-05-20 22:38:00,70.2,61.9,29.15,SE,137,0.0,0.0,75,0.00,,BKN,0.00,VWS V13.01,2013-05-21 02:38:00,
2013-05-20 22:43:00,70.2,61.9,29.15,SE,137,0.0,0.0,75,0.00,,BKN,0.00,VWS V13.01,2013-05-21 02:43:00,
2013-05-20 22:48:00,70.2,61.5,29.15,SE,137,0.0,0.0,74,0.00,,BKN,0.00,VWS V13.01,2013-05-21 02:48:00,
2013-05-20 22:53:00,70.3,60.9,29.15,SE,137,0.0,0.0,72,0.00,,BKN,0.00,VWS V13.01,2013-05-21 02:53:00,
2013-05-20 22:58:00,70.2,60.3,29.15,SE,137,0.0,0.0,71,0.00,,BKN,0.00,VWS V13.01,2013-05-21 02:58:00,
2013-05-20 23:03:00,70.2,60.3,29.15,SE,137,0.0,0.0,71,0.00,,BKN,0.00,VWS V13.01,2013-05-21 03:03:00,
2013-05-20 23:08:00,70.0,60.2,29.15,SE,137,0.0,0.0,71,0.00,,BKN,0.00,VWS V13.01,2013-05-21 03:08:00,
2013-05-20 23:13:00,69.8,59.6,29.15,SE,137,0.0,0.0,70,0.00,,BKN,0.00,VWS V13.01,2013-05-21 03:13:00,
2013-05-20 23:18:00,69.6,59.4,29.15,SE,137,0.0,0.0,70,0.00,,BKN,0.00,VWS V13.01,2013-05-21 03:18:00,
2013-05-20 23:23:00,69.4,59.2,29.15,SE,137,0.0,0.0,70,0.00,,BKN,0.00,VWS V13.01,2013-05-21 03:23:00,
2013-05-20 23:28:00,69.3,59.1,29.15,SE,137,0.0,0.0,70,0.00,,BKN,0.00,VWS V13.01,2013-05-21 03:28:00,
2013-05-20 23:33:00,69.3,59.1,29.15,SE,137,0.0,0.0,70,0.00,,BKN,0.00,VWS V13.01,2013-05-21 03:33:00,
2013-05-20 23:38:00,69.1,58.9,29.15,SE,137,0.0,0.0,70,0.00,,BKN,0.00,VWS V13.01,2013-05-21 03:38:00,
2013-05-20 23:43:00,68.9,58.7,29.15,SE,137,0.0,0.0,70,0.00,,BKN,0.00,VWS V13.01,2013-05-21 03:43:00,
2013-05-20 23:48:00,68.7,59.0,29.15,SE,137,0.0,0.0,71,0.00,,BKN,0.00,VWS V13.01,2013-05-21 03:48:00,
2013-05-20 23:53:00,68.5,58.8,29.15,SE,137,0.0,0.0,71,0.00,,BKN,0.00,VWS V13.01,2013-05-21 03:53:00,
2013-05-20 23:58:00,68.5,58.8,29.15,SE,137,0.0,0.0,71,0.00,,BKN,0.00,VWS V13.01,2013-05-21 03:58:00,